sensor_id;sensor_type;location;lat;lon;timestamp;temperature;humidity
18392;DHT22;9322;50.932;5.318;2023-06-10T00:00:13;22.50;1.40
18392;DHT22;9322;50.932;5.318;2023-06-10T00:02:40;22.40;1.40
18392;DHT22;9322;50.932;5.318;2023-06-10T00:05:06;22.40;1.40
18392;DHT22;9322;50.932;5.318;2023-06-10T00:07:33;22.40;1.40
18392;DHT22;9322;50.932;5.318;2023-06-10T00:10:06;22.20;1.40
18392;DHT22;9322;50.932;5.318;2023-06-10T00:12:32;22.30;1.40
18392;DHT22;9322;50.932;5.318;2023-06-10T00:15:03;22.40;1.40
18392;DHT22;9322;50.932;5.318;2023-06-10T00:17:29;22.30;1.40
18392;DHT22;9322;50.932;5.318;2023-06-10T00:19:55;22.30;1.40
18392;DHT22;9322;50.932;5.318;2023-06-10T00:22:20;22.20;1.40
18392;DHT22;9322;50.932;5.318;2023-06-10T00:24:47;22.20;1.40
18392;DHT22;9322;50.932;5.318;2023-06-10T00:27:13;22.20;1.40
18392;DHT22;9322;50.932;5.318;2023-06-10T00:29:39;22.20;1.40
18392;DHT22;9322;50.932;5.318;2023-06-10T00:32:05;22.10;1.40
18392;DHT22;9322;50.932;5.318;2023-06-10T00:34:30;22.00;1.40
18392;DHT22;9322;50.932;5.318;2023-06-10T00:36:57;22.10;1.40
18392;DHT22;9322;50.932;5.318;2023-06-10T00:39:23;22.00;1.40
18392;DHT22;9322;50.932;5.318;2023-06-10T00:41:49;22.00;1.40
18392;DHT22;9322;50.932;5.318;2023-06-10T00:44:15;22.00;1.40
18392;DHT22;9322;50.932;5.318;2023-06-10T00:46:41;21.80;1.40
18392;DHT22;9322;50.932;5.318;2023-06-10T00:49:07;21.80;1.40
18392;DHT22;9322;50.932;5.318;2023-06-10T00:51:33;21.80;1.40
18392;DHT22;9322;50.932;5.318;2023-06-10T00:54:00;21.80;1.40
18392;DHT22;9322;50.932;5.318;2023-06-10T00:56:26;21.80;1.40
18392;DHT22;9322;50.932;5.318;2023-06-10T00:58:52;21.90;1.40
18392;DHT22;9322;50.932;5.318;2023-06-10T01:01:18;21.90;1.40
18392;DHT22;9322;50.932;5.318;2023-06-10T01:03:45;21.80;1.40
18392;DHT22;9322;50.932;5.318;2023-06-10T01:06:29;21.80;1.40
18392;DHT22;9322;50.932;5.318;2023-06-10T01:11:34;21.80;1.40
18392;DHT22;9322;50.932;5.318;2023-06-10T01:14:03;21.70;1.40
18392;DHT22;9322;50.932;5.318;2023-06-10T01:16:30;21.70;1.40
18392;DHT22;9322;50.932;5.318;2023-06-10T01:18:56;21.70;1.40
18392;DHT22;9322;50.932;5.318;2023-06-10T01:21:23;21.70;1.40
18392;DHT22;9322;50.932;5.318;2023-06-10T01:23:51;21.90;1.40
18392;DHT22;9322;50.932;5.318;2023-06-10T01:26:17;21.70;1.40
18392;DHT22;9322;50.932;5.318;2023-06-10T01:29:11;21.60;1.40
18392;DHT22;9322;50.932;5.318;2023-06-10T01:32:06;21.50;1.40
18392;DHT22;9322;50.932;5.318;2023-06-10T01:34:33;21.50;1.40
18392;DHT22;9322;50.932;5.318;2023-06-10T01:37:02;21.50;1.40
18392;DHT22;9322;50.932;5.318;2023-06-10T01:39:29;21.40;1.40
18392;DHT22;9322;50.932;5.318;2023-06-10T01:41:56;21.40;1.40
18392;DHT22;9322;50.932;5.318;2023-06-10T01:44:23;21.40;1.40
18392;DHT22;9322;50.932;5.318;2023-06-10T01:46:48;21.40;1.40
18392;DHT22;9322;50.932;5.318;2023-06-10T01:49:14;21.40;1.40
18392;DHT22;9322;50.932;5.318;2023-06-10T01:51:40;21.30;1.40
18392;DHT22;9322;50.932;5.318;2023-06-10T01:54:06;21.20;1.40
18392;DHT22;9322;50.932;5.318;2023-06-10T01:56:32;21.20;1.40
18392;DHT22;9322;50.932;5.318;2023-06-10T01:58:58;21.30;1.40
18392;DHT22;9322;50.932;5.318;2023-06-10T02:01:28;21.20;1.40
18392;DHT22;9322;50.932;5.318;2023-06-10T02:03:54;21.20;1.40
18392;DHT22;9322;50.932;5.318;2023-06-10T02:06:19;21.20;1.40
18392;DHT22;9322;50.932;5.318;2023-06-10T02:08:45;21.20;1.40
18392;DHT22;9322;50.932;5.318;2023-06-10T02:11:11;21.10;1.40
18392;DHT22;9322;50.932;5.318;2023-06-10T02:13:38;21.00;1.40
18392;DHT22;9322;50.932;5.318;2023-06-10T02:16:03;21.00;1.40
18392;DHT22;9322;50.932;5.318;2023-06-10T02:18:30;21.00;1.40
18392;DHT22;9322;50.932;5.318;2023-06-10T02:20:56;21.00;1.40
18392;DHT22;9322;50.932;5.318;2023-06-10T02:23:22;21.00;1.40
18392;DHT22;9322;50.932;5.318;2023-06-10T02:25:47;21.00;1.40
18392;DHT22;9322;50.932;5.318;2023-06-10T02:28:13;20.90;1.40
18392;DHT22;9322;50.932;5.318;2023-06-10T02:30:42;20.80;1.40
18392;DHT22;9322;50.932;5.318;2023-06-10T02:33:08;20.80;1.40
18392;DHT22;9322;50.932;5.318;2023-06-10T02:35:38;20.80;1.40
18392;DHT22;9322;50.932;5.318;2023-06-10T02:38:04;20.80;1.40
18392;DHT22;9322;50.932;5.318;2023-06-10T02:40:30;20.70;1.40
18392;DHT22;9322;50.932;5.318;2023-06-10T02:42:56;20.70;1.40
18392;DHT22;9322;50.932;5.318;2023-06-10T02:45:21;20.80;1.40
18392;DHT22;9322;50.932;5.318;2023-06-10T02:47:47;20.70;1.40
18392;DHT22;9322;50.932;5.318;2023-06-10T02:50:12;20.70;1.40
18392;DHT22;9322;50.932;5.318;2023-06-10T02:52:38;20.60;1.40
18392;DHT22;9322;50.932;5.318;2023-06-10T02:55:04;20.50;1.40
18392;DHT22;9322;50.932;5.318;2023-06-10T02:57:30;20.60;1.40
18392;DHT22;9322;50.932;5.318;2023-06-10T02:59:56;20.70;1.40
18392;DHT22;9322;50.932;5.318;2023-06-10T03:02:24;20.60;1.40
18392;DHT22;9322;50.932;5.318;2023-06-10T03:04:57;20.50;1.40
18392;DHT22;9322;50.932;5.318;2023-06-10T03:07:23;20.50;1.40
18392;DHT22;9322;50.932;5.318;2023-06-10T03:09:48;20.60;1.40
18392;DHT22;9322;50.932;5.318;2023-06-10T03:12:15;20.50;1.40
18392;DHT22;9322;50.932;5.318;2023-06-10T03:14:41;20.30;1.40
18392;DHT22;9322;50.932;5.318;2023-06-10T03:17:07;20.40;1.40
18392;DHT22;9322;50.932;5.318;2023-06-10T03:19:34;20.40;1.40
18392;DHT22;9322;50.932;5.318;2023-06-10T03:22:12;20.30;1.40
18392;DHT22;9322;50.932;5.318;2023-06-10T03:24:38;20.30;1.40
18392;DHT22;9322;50.932;5.318;2023-06-10T03:27:07;20.30;1.40
18392;DHT22;9322;50.932;5.318;2023-06-10T03:29:33;20.30;1.40
18392;DHT22;9322;50.932;5.318;2023-06-10T03:31:59;20.30;1.40
18392;DHT22;9322;50.932;5.318;2023-06-10T03:34:25;20.20;1.40
18392;DHT22;9322;50.932;5.318;2023-06-10T03:36:51;20.20;1.40
18392;DHT22;9322;50.932;5.318;2023-06-10T03:39:16;20.10;1.40
18392;DHT22;9322;50.932;5.318;2023-06-10T03:41:42;20.20;1.40
18392;DHT22;9322;50.932;5.318;2023-06-10T03:44:07;20.20;1.40
18392;DHT22;9322;50.932;5.318;2023-06-10T03:46:33;20.30;1.40
18392;DHT22;9322;50.932;5.318;2023-06-10T03:48:58;20.20;1.40
18392;DHT22;9322;50.932;5.318;2023-06-10T03:51:26;20.10;1.40
18392;DHT22;9322;50.932;5.318;2023-06-10T03:53:52;20.10;1.40
18392;DHT22;9322;50.932;5.318;2023-06-10T03:56:18;20.10;1.40
18392;DHT22;9322;50.932;5.318;2023-06-10T03:58:43;20.10;1.40
18392;DHT22;9322;50.932;5.318;2023-06-10T04:01:09;20.20;1.40
18392;DHT22;9322;50.932;5.318;2023-06-10T04:03:36;20.30;1.40
18392;DHT22;9322;50.932;5.318;2023-06-10T04:06:01;20.10;1.40
18392;DHT22;9322;50.932;5.318;2023-06-10T04:08:28;20.20;1.40
18392;DHT22;9322;50.932;5.318;2023-06-10T04:10:53;20.20;1.40
18392;DHT22;9322;50.932;5.318;2023-06-10T04:13:19;20.20;1.40
18392;DHT22;9322;50.932;5.318;2023-06-10T04:15:45;20.20;1.40
18392;DHT22;9322;50.932;5.318;2023-06-10T04:18:10;20.20;1.40
18392;DHT22;9322;50.932;5.318;2023-06-10T04:20:36;20.30;1.40
18392;DHT22;9322;50.932;5.318;2023-06-10T04:23:02;20.30;1.40
18392;DHT22;9322;50.932;5.318;2023-06-10T04:25:27;20.40;1.40
18392;DHT22;9322;50.932;5.318;2023-06-10T04:27:54;20.40;1.40
18392;DHT22;9322;50.932;5.318;2023-06-10T04:30:19;20.50;1.40
18392;DHT22;9322;50.932;5.318;2023-06-10T04:32:45;20.60;1.40
18392;DHT22;9322;50.932;5.318;2023-06-10T04:35:13;20.70;1.40
18392;DHT22;9322;50.932;5.318;2023-06-10T04:37:40;21.10;1.40
18392;DHT22;9322;50.932;5.318;2023-06-10T04:40:07;21.40;1.40
18392;DHT22;9322;50.932;5.318;2023-06-10T04:42:33;21.90;1.40
18392;DHT22;9322;50.932;5.318;2023-06-10T04:44:59;22.30;1.40
18392;DHT22;9322;50.932;5.318;2023-06-10T04:47:25;22.50;1.40
18392;DHT22;9322;50.932;5.318;2023-06-10T04:49:51;22.80;1.40
18392;DHT22;9322;50.932;5.318;2023-06-10T04:52:16;22.90;1.40
18392;DHT22;9322;50.932;5.318;2023-06-10T04:54:43;23.20;1.40
18392;DHT22;9322;50.932;5.318;2023-06-10T04:57:09;23.60;1.40
18392;DHT22;9322;50.932;5.318;2023-06-10T04:59:36;23.50;1.40
18392;DHT22;9322;50.932;5.318;2023-06-10T05:02:04;23.50;1.40
18392;DHT22;9322;50.932;5.318;2023-06-10T05:04:30;23.80;1.40
18392;DHT22;9322;50.932;5.318;2023-06-10T05:06:55;23.90;1.40
18392;DHT22;9322;50.932;5.318;2023-06-10T05:09:21;24.20;1.40
18392;DHT22;9322;50.932;5.318;2023-06-10T05:11:47;24.50;1.40
18392;DHT22;9322;50.932;5.318;2023-06-10T05:14:12;24.60;1.40
18392;DHT22;9322;50.932;5.318;2023-06-10T05:16:38;24.50;1.40
18392;DHT22;9322;50.932;5.318;2023-06-10T05:19:04;24.60;1.40
18392;DHT22;9322;50.932;5.318;2023-06-10T05:21:30;25.00;1.40
18392;DHT22;9322;50.932;5.318;2023-06-10T05:23:56;24.80;1.40
18392;DHT22;9322;50.932;5.318;2023-06-10T05:26:21;25.00;1.40
18392;DHT22;9322;50.932;5.318;2023-06-10T05:28:47;25.40;1.40
18392;DHT22;9322;50.932;5.318;2023-06-10T05:31:13;25.70;1.40
18392;DHT22;9322;50.932;5.318;2023-06-10T05:33:39;25.90;1.40
18392;DHT22;9322;50.932;5.318;2023-06-10T05:36:05;26.30;1.40
18392;DHT22;9322;50.932;5.318;2023-06-10T05:38:31;26.50;1.40
18392;DHT22;9322;50.932;5.318;2023-06-10T05:40:57;26.50;1.40
18392;DHT22;9322;50.932;5.318;2023-06-10T05:43:24;26.50;1.40
18392;DHT22;9322;50.932;5.318;2023-06-10T05:45:50;26.70;1.40
18392;DHT22;9322;50.932;5.318;2023-06-10T05:48:15;26.70;1.40
18392;DHT22;9322;50.932;5.318;2023-06-10T05:50:41;26.50;1.40
18392;DHT22;9322;50.932;5.318;2023-06-10T05:53:08;26.60;1.40
18392;DHT22;9322;50.932;5.318;2023-06-10T05:55:44;26.80;1.40
18392;DHT22;9322;50.932;5.318;2023-06-10T05:58:11;27.30;1.40
18392;DHT22;9322;50.932;5.318;2023-06-10T06:00:39;27.60;1.40
18392;DHT22;9322;50.932;5.318;2023-06-10T06:03:09;27.90;1.40
18392;DHT22;9322;50.932;5.318;2023-06-10T06:05:36;28.20;1.40
18392;DHT22;9322;50.932;5.318;2023-06-10T06:08:06;28.40;1.40
18392;DHT22;9322;50.932;5.318;2023-06-10T06:10:32;28.40;1.40
18392;DHT22;9322;50.932;5.318;2023-06-10T06:12:59;28.50;1.40
18392;DHT22;9322;50.932;5.318;2023-06-10T06:15:25;28.80;1.40
18392;DHT22;9322;50.932;5.318;2023-06-10T06:17:51;29.10;1.40
18392;DHT22;9322;50.932;5.318;2023-06-10T06:20:19;29.80;1.40
18392;DHT22;9322;50.932;5.318;2023-06-10T06:22:45;29.50;1.40
18392;DHT22;9322;50.932;5.318;2023-06-10T06:25:10;29.40;1.40
18392;DHT22;9322;50.932;5.318;2023-06-10T06:27:36;29.70;1.40
18392;DHT22;9322;50.932;5.318;2023-06-10T06:30:02;30.50;1.40
18392;DHT22;9322;50.932;5.318;2023-06-10T06:32:28;30.90;1.40
18392;DHT22;9322;50.932;5.318;2023-06-10T06:34:54;31.10;1.40
18392;DHT22;9322;50.932;5.318;2023-06-10T06:37:23;31.40;1.40
18392;DHT22;9322;50.932;5.318;2023-06-10T06:39:53;31.20;1.40
18392;DHT22;9322;50.932;5.318;2023-06-10T06:42:20;31.00;1.40
18392;DHT22;9322;50.932;5.318;2023-06-10T06:44:46;30.60;1.40
18392;DHT22;9322;50.932;5.318;2023-06-10T06:47:13;31.00;1.40
18392;DHT22;9322;50.932;5.318;2023-06-10T06:49:38;30.70;1.40
18392;DHT22;9322;50.932;5.318;2023-06-10T06:52:04;30.40;1.40
18392;DHT22;9322;50.932;5.318;2023-06-10T06:54:30;30.70;1.40
18392;DHT22;9322;50.932;5.318;2023-06-10T06:56:57;31.40;1.40
18392;DHT22;9322;50.932;5.318;2023-06-10T06:59:22;31.80;1.40
18392;DHT22;9322;50.932;5.318;2023-06-10T07:01:49;32.40;1.40
18392;DHT22;9322;50.932;5.318;2023-06-10T07:04:15;32.70;1.40
18392;DHT22;9322;50.932;5.318;2023-06-10T07:06:41;32.40;1.40
18392;DHT22;9322;50.932;5.318;2023-06-10T07:09:10;32.70;1.40
18392;DHT22;9322;50.932;5.318;2023-06-10T07:11:35;32.90;1.40
18392;DHT22;9322;50.932;5.318;2023-06-10T07:14:01;32.50;1.40
18392;DHT22;9322;50.932;5.318;2023-06-10T07:16:26;32.80;1.40
18392;DHT22;9322;50.932;5.318;2023-06-10T07:18:53;32.80;1.40
18392;DHT22;9322;50.932;5.318;2023-06-10T07:21:18;32.80;1.40
18392;DHT22;9322;50.932;5.318;2023-06-10T07:23:44;33.00;1.40
18392;DHT22;9322;50.932;5.318;2023-06-10T07:26:11;33.70;1.40
18392;DHT22;9322;50.932;5.318;2023-06-10T07:28:41;33.70;1.40
18392;DHT22;9322;50.932;5.318;2023-06-10T07:31:07;34.30;1.40
18392;DHT22;9322;50.932;5.318;2023-06-10T07:33:33;34.30;1.40
18392;DHT22;9322;50.932;5.318;2023-06-10T07:35:59;34.60;1.40
18392;DHT22;9322;50.932;5.318;2023-06-10T07:38:26;34.20;1.40
18392;DHT22;9322;50.932;5.318;2023-06-10T07:40:52;34.70;1.40
18392;DHT22;9322;50.932;5.318;2023-06-10T07:43:17;35.10;1.40
18392;DHT22;9322;50.932;5.318;2023-06-10T07:45:43;35.30;1.40
18392;DHT22;9322;50.932;5.318;2023-06-10T07:48:09;35.60;1.40
18392;DHT22;9322;50.932;5.318;2023-06-10T07:50:35;35.10;1.40
18392;DHT22;9322;50.932;5.318;2023-06-10T07:53:01;34.30;1.40
18392;DHT22;9322;50.932;5.318;2023-06-10T07:55:26;34.40;1.40
18392;DHT22;9322;50.932;5.318;2023-06-10T07:57:53;34.90;1.40
18392;DHT22;9322;50.932;5.318;2023-06-10T08:00:19;34.60;1.40
18392;DHT22;9322;50.932;5.318;2023-06-10T08:02:45;34.80;1.40
18392;DHT22;9322;50.932;5.318;2023-06-10T08:05:11;35.00;1.40
18392;DHT22;9322;50.932;5.318;2023-06-10T08:07:36;35.30;1.40
18392;DHT22;9322;50.932;5.318;2023-06-10T08:10:03;35.90;1.40
18392;DHT22;9322;50.932;5.318;2023-06-10T08:12:29;35.20;1.40
18392;DHT22;9322;50.932;5.318;2023-06-10T08:14:55;35.10;1.40
18392;DHT22;9322;50.932;5.318;2023-06-10T08:17:21;36.10;1.40
18392;DHT22;9322;50.932;5.318;2023-06-10T08:19:46;36.90;1.40
18392;DHT22;9322;50.932;5.318;2023-06-10T08:22:12;37.30;1.40
18392;DHT22;9322;50.932;5.318;2023-06-10T08:24:38;37.60;1.40
18392;DHT22;9322;50.932;5.318;2023-06-10T08:27:04;38.20;1.40
18392;DHT22;9322;50.932;5.318;2023-06-10T08:29:31;38.70;1.40
18392;DHT22;9322;50.932;5.318;2023-06-10T08:31:57;39.30;1.40
18392;DHT22;9322;50.932;5.318;2023-06-10T08:34:23;39.80;1.40
18392;DHT22;9322;50.932;5.318;2023-06-10T08:36:49;40.00;1.40
18392;DHT22;9322;50.932;5.318;2023-06-10T08:39:21;38.50;1.40
18392;DHT22;9322;50.932;5.318;2023-06-10T08:41:57;38.10;1.40
18392;DHT22;9322;50.932;5.318;2023-06-10T08:44:29;38.30;1.40
18392;DHT22;9322;50.932;5.318;2023-06-10T08:46:59;38.70;1.40
18392;DHT22;9322;50.932;5.318;2023-06-10T08:49:26;39.90;1.40
18392;DHT22;9322;50.932;5.318;2023-06-10T08:51:58;40.80;1.40
18392;DHT22;9322;50.932;5.318;2023-06-10T08:54:29;38.60;1.40
18392;DHT22;9322;50.932;5.318;2023-06-10T08:56:55;38.70;1.40
18392;DHT22;9322;50.932;5.318;2023-06-10T08:59:24;38.10;1.40
18392;DHT22;9322;50.932;5.318;2023-06-10T09:01:51;38.30;1.40
18392;DHT22;9322;50.932;5.318;2023-06-10T09:04:17;38.80;1.40
18392;DHT22;9322;50.932;5.318;2023-06-10T09:06:44;39.60;1.40
18392;DHT22;9322;50.932;5.318;2023-06-10T09:09:10;40.20;1.40
18392;DHT22;9322;50.932;5.318;2023-06-10T09:11:38;39.70;1.40
18392;DHT22;9322;50.932;5.318;2023-06-10T09:14:03;40.30;1.40
18392;DHT22;9322;50.932;5.318;2023-06-10T09:16:29;40.20;1.40
18392;DHT22;9322;50.932;5.318;2023-06-10T09:18:55;40.00;1.40
18392;DHT22;9322;50.932;5.318;2023-06-10T09:21:24;39.40;1.40
18392;DHT22;9322;50.932;5.318;2023-06-10T09:23:51;39.90;1.40
18392;DHT22;9322;50.932;5.318;2023-06-10T09:26:17;39.70;1.40
18392;DHT22;9322;50.932;5.318;2023-06-10T09:28:57;38.80;1.40
18392;DHT22;9322;50.932;5.318;2023-06-10T09:31:23;38.70;1.40
18392;DHT22;9322;50.932;5.318;2023-06-10T09:33:49;39.40;1.40
18392;DHT22;9322;50.932;5.318;2023-06-10T09:36:24;38.60;1.40
18392;DHT22;9322;50.932;5.318;2023-06-10T09:38:50;38.70;1.40
18392;DHT22;9322;50.932;5.318;2023-06-10T09:41:16;40.30;1.40
18392;DHT22;9322;50.932;5.318;2023-06-10T09:43:44;41.20;1.40
18392;DHT22;9322;50.932;5.318;2023-06-10T09:46:17;40.70;1.40
18392;DHT22;9322;50.932;5.318;2023-06-10T09:48:43;39.70;1.40
18392;DHT22;9322;50.932;5.318;2023-06-10T09:51:10;40.00;1.40
18392;DHT22;9322;50.932;5.318;2023-06-10T09:53:36;39.60;1.40
18392;DHT22;9322;50.932;5.318;2023-06-10T09:56:02;39.20;1.40
18392;DHT22;9322;50.932;5.318;2023-06-10T09:58:38;38.60;1.40
18392;DHT22;9322;50.932;5.318;2023-06-10T10:01:09;38.90;1.40
18392;DHT22;9322;50.932;5.318;2023-06-10T10:06:12;38.40;1.40
18392;DHT22;9322;50.932;5.318;2023-06-10T10:08:37;37.00;1.40
18392;DHT22;9322;50.932;5.318;2023-06-10T10:11:03;37.10;1.40
18392;DHT22;9322;50.932;5.318;2023-06-10T10:13:32;36.60;1.40
18392;DHT22;9322;50.932;5.318;2023-06-10T10:16:01;36.60;1.40
18392;DHT22;9322;50.932;5.318;2023-06-10T10:18:29;36.50;1.40
18392;DHT22;9322;50.932;5.318;2023-06-10T10:20:57;36.90;1.40
18392;DHT22;9322;50.932;5.318;2023-06-10T10:23:31;37.80;1.40
18392;DHT22;9322;50.932;5.318;2023-06-10T10:26:00;38.00;1.40
18392;DHT22;9322;50.932;5.318;2023-06-10T10:28:58;37.90;1.40
18392;DHT22;9322;50.932;5.318;2023-06-10T10:31:21;38.10;1.40
18392;DHT22;9322;50.932;5.318;2023-06-10T10:34:01;37.90;1.40
18392;DHT22;9322;50.932;5.318;2023-06-10T10:36:28;37.70;1.40
18392;DHT22;9322;50.932;5.318;2023-06-10T10:38:54;37.80;1.40
18392;DHT22;9322;50.932;5.318;2023-06-10T10:41:20;38.10;1.40
18392;DHT22;9322;50.932;5.318;2023-06-10T10:43:47;38.60;1.40
18392;DHT22;9322;50.932;5.318;2023-06-10T10:46:14;38.30;1.40
18392;DHT22;9322;50.932;5.318;2023-06-10T10:48:41;38.40;1.40
18392;DHT22;9322;50.932;5.318;2023-06-10T10:51:08;38.20;1.40
18392;DHT22;9322;50.932;5.318;2023-06-10T10:53:34;38.40;1.40
18392;DHT22;9322;50.932;5.318;2023-06-10T10:56:05;37.90;1.40
18392;DHT22;9322;50.932;5.318;2023-06-10T10:58:33;37.80;1.40
18392;DHT22;9322;50.932;5.318;2023-06-10T11:00:58;36.90;1.40
18392;DHT22;9322;50.932;5.318;2023-06-10T11:03:28;36.80;1.40
18392;DHT22;9322;50.932;5.318;2023-06-10T11:05:57;36.30;1.40
18392;DHT22;9322;50.932;5.318;2023-06-10T11:10:54;37.00;1.40
18392;DHT22;9322;50.932;5.318;2023-06-10T11:13:21;37.90;1.40
18392;DHT22;9322;50.932;5.318;2023-06-10T11:15:51;38.10;1.40
18392;DHT22;9322;50.932;5.318;2023-06-10T11:18:26;38.30;1.40
18392;DHT22;9322;50.932;5.318;2023-06-10T11:31:19;36.30;1.40
18392;DHT22;9322;50.932;5.318;2023-06-10T11:33:47;37.00;1.40
18392;DHT22;9322;50.932;5.318;2023-06-10T11:36:13;37.10;1.40
18392;DHT22;9322;50.932;5.318;2023-06-10T11:38:39;36.20;1.40
18392;DHT22;9322;50.932;5.318;2023-06-10T11:41:05;35.90;1.40
18392;DHT22;9322;50.932;5.318;2023-06-10T11:43:32;36.20;1.40
18392;DHT22;9322;50.932;5.318;2023-06-10T11:45:57;35.80;1.40
18392;DHT22;9322;50.932;5.318;2023-06-10T11:48:23;36.10;1.40
18392;DHT22;9322;50.932;5.318;2023-06-10T11:50:49;36.30;1.40
18392;DHT22;9322;50.932;5.318;2023-06-10T11:53:14;36.70;1.40
18392;DHT22;9322;50.932;5.318;2023-06-10T11:55:47;36.90;1.40
18392;DHT22;9322;50.932;5.318;2023-06-10T12:03:15;34.60;1.40
18392;DHT22;9322;50.932;5.318;2023-06-10T12:05:54;34.00;1.40
18392;DHT22;9322;50.932;5.318;2023-06-10T12:08:19;33.30;1.40
18392;DHT22;9322;50.932;5.318;2023-06-10T12:10:45;33.50;1.40
18392;DHT22;9322;50.932;5.318;2023-06-10T12:13:11;33.80;1.40
18392;DHT22;9322;50.932;5.318;2023-06-10T12:15:37;33.60;1.40
18392;DHT22;9322;50.932;5.318;2023-06-10T12:18:03;33.40;1.40
18392;DHT22;9322;50.932;5.318;2023-06-10T12:20:31;33.80;1.40
18392;DHT22;9322;50.932;5.318;2023-06-10T12:22:59;33.20;1.40
18392;DHT22;9322;50.932;5.318;2023-06-10T12:25:29;33.10;1.40
18392;DHT22;9322;50.932;5.318;2023-06-10T12:27:57;33.60;1.40
18392;DHT22;9322;50.932;5.318;2023-06-10T12:30:27;33.20;1.40
18392;DHT22;9322;50.932;5.318;2023-06-10T12:32:53;32.70;1.40
18392;DHT22;9322;50.932;5.318;2023-06-10T12:35:21;32.70;1.40
18392;DHT22;9322;50.932;5.318;2023-06-10T12:38:04;32.40;1.40
18392;DHT22;9322;50.932;5.318;2023-06-10T12:40:37;32.50;1.40
18392;DHT22;9322;50.932;5.318;2023-06-10T12:43:04;32.40;1.40
18392;DHT22;9322;50.932;5.318;2023-06-10T12:45:37;32.50;1.40
18392;DHT22;9322;50.932;5.318;2023-06-10T12:48:24;32.60;1.40
18392;DHT22;9322;50.932;5.318;2023-06-10T12:50:54;32.50;1.40
18392;DHT22;9322;50.932;5.318;2023-06-10T12:53:21;31.90;1.40
18392;DHT22;9322;50.932;5.318;2023-06-10T12:55:48;31.70;1.40
18392;DHT22;9322;50.932;5.318;2023-06-10T12:58:14;31.50;1.40
18392;DHT22;9322;50.932;5.318;2023-06-10T13:00:40;31.30;1.40
18392;DHT22;9322;50.932;5.318;2023-06-10T13:03:08;31.70;1.40
18392;DHT22;9322;50.932;5.318;2023-06-10T13:05:38;32.00;1.40
18392;DHT22;9322;50.932;5.318;2023-06-10T13:08:05;32.00;1.40
18392;DHT22;9322;50.932;5.318;2023-06-10T13:10:31;32.10;1.40
18392;DHT22;9322;50.932;5.318;2023-06-10T13:12:56;32.10;1.40
18392;DHT22;9322;50.932;5.318;2023-06-10T13:15:22;32.50;1.40
18392;DHT22;9322;50.932;5.318;2023-06-10T13:17:48;32.40;1.40
18392;DHT22;9322;50.932;5.318;2023-06-10T13:20:15;32.00;1.40
18392;DHT22;9322;50.932;5.318;2023-06-10T13:22:44;32.00;1.40
18392;DHT22;9322;50.932;5.318;2023-06-10T13:25:10;31.60;1.40
18392;DHT22;9322;50.932;5.318;2023-06-10T13:27:37;31.50;1.40
18392;DHT22;9322;50.932;5.318;2023-06-10T13:30:08;31.70;1.40
18392;DHT22;9322;50.932;5.318;2023-06-10T13:32:35;31.50;1.40
18392;DHT22;9322;50.932;5.318;2023-06-10T13:35:01;31.60;1.40
18392;DHT22;9322;50.932;5.318;2023-06-10T13:37:27;31.40;1.40
18392;DHT22;9322;50.932;5.318;2023-06-10T13:39:53;31.20;1.40
18392;DHT22;9322;50.932;5.318;2023-06-10T13:42:19;31.00;1.40
18392;DHT22;9322;50.932;5.318;2023-06-10T13:44:46;31.00;1.40
18392;DHT22;9322;50.932;5.318;2023-06-10T13:47:13;31.10;1.40
18392;DHT22;9322;50.932;5.318;2023-06-10T13:49:39;31.10;1.40
18392;DHT22;9322;50.932;5.318;2023-06-10T13:52:06;31.00;1.40
18392;DHT22;9322;50.932;5.318;2023-06-10T13:54:32;31.40;1.40
18392;DHT22;9322;50.932;5.318;2023-06-10T13:56:57;31.30;1.40
18392;DHT22;9322;50.932;5.318;2023-06-10T13:59:24;31.50;1.40
18392;DHT22;9322;50.932;5.318;2023-06-10T14:01:50;31.40;1.40
18392;DHT22;9322;50.932;5.318;2023-06-10T14:04:15;31.40;1.40
18392;DHT22;9322;50.932;5.318;2023-06-10T14:06:41;31.50;1.40
18392;DHT22;9322;50.932;5.318;2023-06-10T14:09:07;31.40;1.40
18392;DHT22;9322;50.932;5.318;2023-06-10T14:11:32;31.60;1.40
18392;DHT22;9322;50.932;5.318;2023-06-10T14:13:58;31.40;1.40
18392;DHT22;9322;50.932;5.318;2023-06-10T14:16:26;30.90;1.40
18392;DHT22;9322;50.932;5.318;2023-06-10T14:18:51;30.80;1.40
18392;DHT22;9322;50.932;5.318;2023-06-10T14:21:17;31.20;1.40
18392;DHT22;9322;50.932;5.318;2023-06-10T14:23:43;31.10;1.40
18392;DHT22;9322;50.932;5.318;2023-06-10T14:26:09;31.00;1.40
18392;DHT22;9322;50.932;5.318;2023-06-10T14:28:35;30.70;1.40
18392;DHT22;9322;50.932;5.318;2023-06-10T14:31:01;30.80;1.40
18392;DHT22;9322;50.932;5.318;2023-06-10T14:33:28;30.60;1.40
18392;DHT22;9322;50.932;5.318;2023-06-10T14:35:54;30.60;1.40
18392;DHT22;9322;50.932;5.318;2023-06-10T14:38:19;30.70;1.40
18392;DHT22;9322;50.932;5.318;2023-06-10T14:40:45;31.00;1.40
18392;DHT22;9322;50.932;5.318;2023-06-10T14:43:11;31.40;1.40
18392;DHT22;9322;50.932;5.318;2023-06-10T14:45:38;31.50;1.40
18392;DHT22;9322;50.932;5.318;2023-06-10T14:48:04;31.60;1.40
18392;DHT22;9322;50.932;5.318;2023-06-10T14:50:30;31.50;1.40
18392;DHT22;9322;50.932;5.318;2023-06-10T14:52:56;31.40;1.40
18392;DHT22;9322;50.932;5.318;2023-06-10T14:55:21;31.40;1.40
18392;DHT22;9322;50.932;5.318;2023-06-10T14:57:48;31.40;1.40
18392;DHT22;9322;50.932;5.318;2023-06-10T15:00:14;31.20;1.40
18392;DHT22;9322;50.932;5.318;2023-06-10T15:02:42;31.20;1.40
18392;DHT22;9322;50.932;5.318;2023-06-10T15:05:08;31.30;1.40
18392;DHT22;9322;50.932;5.318;2023-06-10T15:07:34;31.20;1.40
18392;DHT22;9322;50.932;5.318;2023-06-10T15:09:59;31.00;1.40
18392;DHT22;9322;50.932;5.318;2023-06-10T15:12:25;31.00;1.40
18392;DHT22;9322;50.932;5.318;2023-06-10T15:14:51;31.00;1.40
18392;DHT22;9322;50.932;5.318;2023-06-10T15:17:16;31.00;1.40
18392;DHT22;9322;50.932;5.318;2023-06-10T15:19:42;31.10;1.40
18392;DHT22;9322;50.932;5.318;2023-06-10T15:22:08;31.40;1.40
18392;DHT22;9322;50.932;5.318;2023-06-10T15:24:33;31.60;1.40
18392;DHT22;9322;50.932;5.318;2023-06-10T15:26:59;31.50;1.40
18392;DHT22;9322;50.932;5.318;2023-06-10T15:29:24;31.30;1.40
18392;DHT22;9322;50.932;5.318;2023-06-10T15:31:50;31.10;1.40
18392;DHT22;9322;50.932;5.318;2023-06-10T15:34:16;31.00;1.40
18392;DHT22;9322;50.932;5.318;2023-06-10T15:36:41;30.90;1.40
18392;DHT22;9322;50.932;5.318;2023-06-10T15:39:07;31.00;1.40
18392;DHT22;9322;50.932;5.318;2023-06-10T15:41:33;31.10;1.40
18392;DHT22;9322;50.932;5.318;2023-06-10T15:44:00;30.90;1.40
18392;DHT22;9322;50.932;5.318;2023-06-10T15:46:29;31.00;1.40
18392;DHT22;9322;50.932;5.318;2023-06-10T15:48:55;31.00;1.40
18392;DHT22;9322;50.932;5.318;2023-06-10T15:51:21;31.20;1.40
18392;DHT22;9322;50.932;5.318;2023-06-10T15:53:47;30.90;1.40
18392;DHT22;9322;50.932;5.318;2023-06-10T15:56:13;30.80;1.40
18392;DHT22;9322;50.932;5.318;2023-06-10T15:58:39;30.80;1.40
18392;DHT22;9322;50.932;5.318;2023-06-10T16:01:05;31.20;1.40
18392;DHT22;9322;50.932;5.318;2023-06-10T16:03:32;31.20;1.40
18392;DHT22;9322;50.932;5.318;2023-06-10T16:05:58;30.90;1.40
18392;DHT22;9322;50.932;5.318;2023-06-10T16:08:23;30.80;1.40
18392;DHT22;9322;50.932;5.318;2023-06-10T16:10:49;30.80;1.40
18392;DHT22;9322;50.932;5.318;2023-06-10T16:13:15;30.90;1.40
18392;DHT22;9322;50.932;5.318;2023-06-10T16:15:40;30.80;1.40
18392;DHT22;9322;50.932;5.318;2023-06-10T16:18:06;30.90;1.40
18392;DHT22;9322;50.932;5.318;2023-06-10T16:20:32;30.80;1.40
18392;DHT22;9322;50.932;5.318;2023-06-10T16:23:01;30.80;1.40